sensor_id;sensor_type;location;lat;lon;timestamp;pressure;altitude;pressure_sealevel;temperature;humidity
45541;BME280;31265;49.680;8.608;2023-03-03T00:01:20;100877.78;;;0.01;100.00
45541;BME280;31265;49.680;8.608;2023-03-03T00:03:56;100887.72;;;0.04;100.00
45541;BME280;31265;49.680;8.608;2023-03-03T00:06:25;100882.63;;;0.11;100.00
45541;BME280;31265;49.680;8.608;2023-03-03T00:08:53;100886.66;;;0.16;100.00
45541;BME280;31265;49.680;8.608;2023-03-03T00:11:21;100890.94;;;0.02;100.00
45541;BME280;31265;49.680;8.608;2023-03-03T00:13:52;100894.72;;;-0.10;100.00
45541;BME280;31265;49.680;8.608;2023-03-03T00:16:23;100886.47;;;-0.16;100.00
45541;BME280;31265;49.680;8.608;2023-03-03T00:18:54;100888.38;;;-0.22;100.00
45541;BME280;31265;49.680;8.608;2023-03-03T00:21:25;100895.41;;;-0.30;100.00
45541;BME280;31265;49.680;8.608;2023-03-03T00:24:14;100897.41;;;-0.31;100.00
45541;BME280;31265;49.680;8.608;2023-03-03T00:26:44;100895.91;;;-0.47;100.00
45541;BME280;31265;49.680;8.608;2023-03-03T00:29:26;100895.72;;;-0.58;100.00
45541;BME280;31265;49.680;8.608;2023-03-03T00:32:11;100901.84;;;-0.63;100.00
45541;BME280;31265;49.680;8.608;2023-03-03T00:34:44;100897.50;;;-0.70;100.00
45541;BME280;31265;49.680;8.608;2023-03-03T00:37:22;100902.03;;;-0.67;100.00
45541;BME280;31265;49.680;8.608;2023-03-03T00:39:53;100897.88;;;-0.77;100.00
45541;BME280;31265;49.680;8.608;2023-03-03T00:42:21;100896.28;;;-0.83;100.00
45541;BME280;31265;49.680;8.608;2023-03-03T00:44:55;100896.94;;;-0.89;100.00
45541;BME280;31265;49.680;8.608;2023-03-03T00:47:27;100893.19;;;-0.91;100.00
45541;BME280;31265;49.680;8.608;2023-03-03T00:50:25;100901.53;;;-0.95;100.00
45541;BME280;31265;49.680;8.608;2023-03-03T00:53:00;100897.22;;;-1.01;100.00
45541;BME280;31265;49.680;8.608;2023-03-03T00:55:29;100909.50;;;-1.06;100.00
45541;BME280;31265;49.680;8.608;2023-03-03T00:58:00;100904.50;;;-1.08;100.00
45541;BME280;31265;49.680;8.608;2023-03-03T01:00:34;100908.94;;;-1.10;100.00
45541;BME280;31265;49.680;8.608;2023-03-03T01:03:06;100902.09;;;-1.05;100.00
45541;BME280;31265;49.680;8.608;2023-03-03T01:05:36;100905.66;;;-0.99;100.00
45541;BME280;31265;49.680;8.608;2023-03-03T01:08:05;100911.38;;;-0.97;100.00
45541;BME280;31265;49.680;8.608;2023-03-03T01:10:37;100906.22;;;-0.95;100.00
45541;BME280;31265;49.680;8.608;2023-03-03T01:13:07;100913.94;;;-0.94;100.00
45541;BME280;31265;49.680;8.608;2023-03-03T01:15:38;100912.63;;;-0.98;100.00
45541;BME280;31265;49.680;8.608;2023-03-03T01:18:08;100914.47;;;-1.04;100.00
45541;BME280;31265;49.680;8.608;2023-03-03T01:20:40;100912.59;;;-1.13;100.00
45541;BME280;31265;49.680;8.608;2023-03-03T01:23:11;100916.31;;;-1.25;100.00
45541;BME280;31265;49.680;8.608;2023-03-03T01:25:40;100915.16;;;-1.34;100.00
45541;BME280;31265;49.680;8.608;2023-03-03T01:28:09;100913.06;;;-1.39;100.00
45541;BME280;31265;49.680;8.608;2023-03-03T01:30:38;100910.53;;;-1.42;100.00
45541;BME280;31265;49.680;8.608;2023-03-03T01:33:06;100903.59;;;-1.43;100.00
45541;BME280;31265;49.680;8.608;2023-03-03T01:35:36;100895.88;;;-1.45;100.00
45541;BME280;31265;49.680;8.608;2023-03-03T01:38:08;100898.94;;;-1.52;100.00
45541;BME280;31265;49.680;8.608;2023-03-03T01:40:36;100893.84;;;-1.59;100.00
45541;BME280;31265;49.680;8.608;2023-03-03T01:43:05;100898.72;;;-1.63;100.00
45541;BME280;31265;49.680;8.608;2023-03-03T01:45:44;100889.75;;;-1.55;100.00
45541;BME280;31265;49.680;8.608;2023-03-03T01:48:33;100897.63;;;-1.57;100.00
45541;BME280;31265;49.680;8.608;2023-03-03T01:51:08;100895.09;;;-1.60;100.00
45541;BME280;31265;49.680;8.608;2023-03-03T01:53:47;100895.44;;;-1.67;100.00
45541;BME280;31265;49.680;8.608;2023-03-03T01:56:17;100898.59;;;-1.69;100.00
45541;BME280;31265;49.680;8.608;2023-03-03T01:58:48;100893.91;;;-1.68;100.00
45541;BME280;31265;49.680;8.608;2023-03-03T02:01:20;100901.56;;;-1.58;100.00
45541;BME280;31265;49.680;8.608;2023-03-03T02:03:49;100891.44;;;-1.57;100.00
45541;BME280;31265;49.680;8.608;2023-03-03T02:06:24;100898.09;;;-1.58;100.00
45541;BME280;31265;49.680;8.608;2023-03-03T02:09:01;100897.63;;;-1.57;100.00
45541;BME280;31265;49.680;8.608;2023-03-03T02:11:34;100892.56;;;-1.49;100.00
45541;BME280;31265;49.680;8.608;2023-03-03T02:14:03;100896.47;;;-1.41;100.00
45541;BME280;31265;49.680;8.608;2023-03-03T02:16:32;100884.34;;;-1.40;100.00
45541;BME280;31265;49.680;8.608;2023-03-03T02:19:00;100892.56;;;-1.49;100.00
45541;BME280;31265;49.680;8.608;2023-03-03T02:21:29;100892.34;;;-1.60;100.00
45541;BME280;31265;49.680;8.608;2023-03-03T02:24:06;100888.94;;;-1.70;100.00
45541;BME280;31265;49.680;8.608;2023-03-03T02:26:39;100887.00;;;-1.79;100.00
45541;BME280;31265;49.680;8.608;2023-03-03T02:29:13;100886.59;;;-1.86;100.00
45541;BME280;31265;49.680;8.608;2023-03-03T02:31:41;100889.81;;;-1.88;100.00
45541;BME280;31265;49.680;8.608;2023-03-03T02:34:10;100882.44;;;-1.97;100.00
45541;BME280;31265;49.680;8.608;2023-03-03T02:36:40;100893.94;;;-2.02;100.00
45541;BME280;31265;49.680;8.608;2023-03-03T02:39:13;100884.75;;;-2.04;100.00
45541;BME280;31265;49.680;8.608;2023-03-03T02:41:52;100886.28;;;-2.12;100.00
45541;BME280;31265;49.680;8.608;2023-03-03T02:44:29;100878.28;;;-2.16;100.00
45541;BME280;31265;49.680;8.608;2023-03-03T02:46:59;100884.78;;;-2.13;100.00
45541;BME280;31265;49.680;8.608;2023-03-03T02:49:29;100886.28;;;-2.12;100.00
45541;BME280;31265;49.680;8.608;2023-03-03T02:52:00;100882.16;;;-2.08;100.00
45541;BME280;31265;49.680;8.608;2023-03-03T02:54:29;100886.22;;;-2.03;100.00
45541;BME280;31265;49.680;8.608;2023-03-03T02:57:04;100886.19;;;-1.94;100.00
45541;BME280;31265;49.680;8.608;2023-03-03T02:59:33;100886.00;;;-1.90;100.00
45541;BME280;31265;49.680;8.608;2023-03-03T03:02:10;100878.91;;;-1.88;100.00
45541;BME280;31265;49.680;8.608;2023-03-03T03:04:40;100881.97;;;-1.95;100.00
45541;BME280;31265;49.680;8.608;2023-03-03T03:07:10;100878.66;;;-1.99;100.00
45541;BME280;31265;49.680;8.608;2023-03-03T03:09:39;100875.06;;;-2.05;100.00
45541;BME280;31265;49.680;8.608;2023-03-03T03:12:12;100875.66;;;-2.01;100.00
45541;BME280;31265;49.680;8.608;2023-03-03T03:14:43;100890.41;;;-1.93;100.00
45541;BME280;31265;49.680;8.608;2023-03-03T03:17:12;100889.03;;;-1.88;100.00
45541;BME280;31265;49.680;8.608;2023-03-03T03:19:42;100892.88;;;-1.95;100.00
45541;BME280;31265;49.680;8.608;2023-03-03T03:22:11;100896.22;;;-2.00;100.00
45541;BME280;31265;49.680;8.608;2023-03-03T03:24:39;100895.91;;;-2.02;100.00
45541;BME280;31265;49.680;8.608;2023-03-03T03:27:08;100887.75;;;-2.02;100.00
45541;BME280;31265;49.680;8.608;2023-03-03T03:29:40;100892.91;;;-2.04;100.00
45541;BME280;31265;49.680;8.608;2023-03-03T03:32:08;100890.50;;;-2.11;100.00
45541;BME280;31265;49.680;8.608;2023-03-03T03:34:38;100884.34;;;-2.21;100.00
45541;BME280;31265;49.680;8.608;2023-03-03T03:37:09;100893.44;;;-2.24;100.00
45541;BME280;31265;49.680;8.608;2023-03-03T03:39:38;100896.16;;;-2.24;100.00
45541;BME280;31265;49.680;8.608;2023-03-03T03:42:07;100889.19;;;-2.25;100.00
45541;BME280;31265;49.680;8.608;2023-03-03T03:44:35;100889.97;;;-2.25;100.00
45541;BME280;31265;49.680;8.608;2023-03-03T03:47:05;100898.25;;;-2.19;100.00
45541;BME280;31265;49.680;8.608;2023-03-03T03:49:33;100893.56;;;-2.19;100.00
45541;BME280;31265;49.680;8.608;2023-03-03T03:52:01;100889.97;;;-2.25;100.00
45541;BME280;31265;49.680;8.608;2023-03-03T03:54:32;100894.38;;;-2.36;100.00
45541;BME280;31265;49.680;8.608;2023-03-03T03:57:03;100892.28;;;-2.42;100.00
45541;BME280;31265;49.680;8.608;2023-03-03T03:59:32;100886.56;;;-2.44;100.00
45541;BME280;31265;49.680;8.608;2023-03-03T04:02:01;100882.19;;;-2.50;100.00
45541;BME280;31265;49.680;8.608;2023-03-03T04:04:32;100885.53;;;-2.55;100.00
45541;BME280;31265;49.680;8.608;2023-03-03T04:07:01;100886.75;;;-2.56;100.00
45541;BME280;31265;49.680;8.608;2023-03-03T04:09:29;100890.38;;;-2.60;100.00
45541;BME280;31265;49.680;8.608;2023-03-03T04:11:58;100895.78;;;-2.50;100.00
45541;BME280;31265;49.680;8.608;2023-03-03T04:14:28;100895.16;;;-2.45;100.00
45541;BME280;31265;49.680;8.608;2023-03-03T04:16:58;100897.25;;;-2.40;100.00
45541;BME280;31265;49.680;8.608;2023-03-03T04:19:26;100890.31;;;-2.41;100.00
45541;BME280;31265;49.680;8.608;2023-03-03T04:21:56;100893.22;;;-2.45;100.00
45541;BME280;31265;49.680;8.608;2023-03-03T04:24:25;100904.97;;;-2.48;100.00
45541;BME280;31265;49.680;8.608;2023-03-03T04:26:54;100900.47;;;-2.51;100.00
45541;BME280;31265;49.680;8.608;2023-03-03T04:29:23;100904.09;;;-2.54;100.00
45541;BME280;31265;49.680;8.608;2023-03-03T04:31:51;100909.69;;;-2.57;100.00
45541;BME280;31265;49.680;8.608;2023-03-03T04:34:21;100909.25;;;-2.56;100.00
45541;BME280;31265;49.680;8.608;2023-03-03T04:36:50;100914.50;;;-2.52;100.00
45541;BME280;31265;49.680;8.608;2023-03-03T04:39:19;100902.44;;;-2.51;100.00
45541;BME280;31265;49.680;8.608;2023-03-03T04:41:51;100911.22;;;-2.56;100.00
45541;BME280;31265;49.680;8.608;2023-03-03T04:44:23;100910.91;;;-2.58;100.00
45541;BME280;31265;49.680;8.608;2023-03-03T04:46:51;100909.84;;;-2.61;100.00
45541;BME280;31265;49.680;8.608;2023-03-03T04:49:21;100907.59;;;-2.63;100.00
45541;BME280;31265;49.680;8.608;2023-03-03T04:51:49;100901.72;;;-2.70;100.00
45541;BME280;31265;49.680;8.608;2023-03-03T04:54:20;100906.09;;;-2.73;100.00
45541;BME280;31265;49.680;8.608;2023-03-03T04:56:49;100915.16;;;-2.76;100.00
45541;BME280;31265;49.680;8.608;2023-03-03T04:59:18;100915.78;;;-2.81;100.00
45541;BME280;31265;49.680;8.608;2023-03-03T05:01:46;100915.31;;;-2.79;100.00
45541;BME280;31265;49.680;8.608;2023-03-03T05:04:15;100921.03;;;-2.77;100.00
45541;BME280;31265;49.680;8.608;2023-03-03T05:06:43;100927.81;;;-2.73;100.00
45541;BME280;31265;49.680;8.608;2023-03-03T05:09:14;100929.94;;;-2.77;100.00
45541;BME280;31265;49.680;8.608;2023-03-03T05:11:51;100947.63;;;-2.82;100.00
45541;BME280;31265;49.680;8.608;2023-03-03T05:14:20;100937.81;;;-2.88;100.00
45541;BME280;31265;49.680;8.608;2023-03-03T05:16:48;100933.28;;;-2.91;100.00
45541;BME280;31265;49.680;8.608;2023-03-03T05:19:18;100934.78;;;-2.81;100.00
45541;BME280;31265;49.680;8.608;2023-03-03T05:21:47;100945.97;;;-2.88;100.00
45541;BME280;31265;49.680;8.608;2023-03-03T05:24:16;100942.78;;;-2.87;100.00
45541;BME280;31265;49.680;8.608;2023-03-03T05:26:48;100953.34;;;-2.89;100.00
45541;BME280;31265;49.680;8.608;2023-03-03T05:29:17;100942.50;;;-2.89;100.00
45541;BME280;31265;49.680;8.608;2023-03-03T05:31:45;100943.69;;;-2.90;100.00
45541;BME280;31265;49.680;8.608;2023-03-03T05:34:13;100952.44;;;-2.95;100.00
45541;BME280;31265;49.680;8.608;2023-03-03T05:36:43;100947.47;;;-2.96;100.00
45541;BME280;31265;49.680;8.608;2023-03-03T05:39:13;100942.19;;;-2.91;100.00
45541;BME280;31265;49.680;8.608;2023-03-03T05:41:42;100942.38;;;-2.24;100.00
45541;BME280;31265;49.680;8.608;2023-03-03T05:44:13;100948.13;;;-1.89;100.00
45541;BME280;31265;49.680;8.608;2023-03-03T05:46:41;100941.69;;;-1.67;100.00
45541;BME280;31265;49.680;8.608;2023-03-03T05:49:12;100944.28;;;-1.73;100.00
45541;BME280;31265;49.680;8.608;2023-03-03T05:51:41;100945.66;;;-1.78;100.00
45541;BME280;31265;49.680;8.608;2023-03-03T05:54:10;100951.69;;;-1.74;100.00
45541;BME280;31265;49.680;8.608;2023-03-03T05:56:38;100946.38;;;-1.68;100.00
45541;BME280;31265;49.680;8.608;2023-03-03T05:59:07;100952.72;;;-1.71;100.00
45541;BME280;31265;49.680;8.608;2023-03-03T06:01:36;100940.88;;;-1.83;100.00
45541;BME280;31265;49.680;8.608;2023-03-03T06:04:06;100943.44;;;-1.88;100.00
45541;BME280;31265;49.680;8.608;2023-03-03T06:06:36;100957.03;;;-1.88;100.00
45541;BME280;31265;49.680;8.608;2023-03-03T06:09:04;100953.88;;;-1.87;100.00
45541;BME280;31265;49.680;8.608;2023-03-03T06:11:33;100956.41;;;-1.83;100.00
45541;BME280;31265;49.680;8.608;2023-03-03T06:14:01;100965.34;;;-1.83;100.00
45541;BME280;31265;49.680;8.608;2023-03-03T06:16:30;100969.56;;;-1.82;100.00
45541;BME280;31265;49.680;8.608;2023-03-03T06:19:01;100977.81;;;-1.67;100.00
45541;BME280;31265;49.680;8.608;2023-03-03T06:21:31;100989.72;;;-1.55;100.00
45541;BME280;31265;49.680;8.608;2023-03-03T06:23:59;100991.25;;;-1.63;100.00
45541;BME280;31265;49.680;8.608;2023-03-03T06:26:28;100991.41;;;-1.67;100.00
45541;BME280;31265;49.680;8.608;2023-03-03T06:28:56;101008.50;;;-1.66;100.00
45541;BME280;31265;49.680;8.608;2023-03-03T06:31:26;100998.84;;;-1.67;100.00
45541;BME280;31265;49.680;8.608;2023-03-03T06:33:55;101010.00;;;-1.65;100.00
45541;BME280;31265;49.680;8.608;2023-03-03T06:36:27;101007.16;;;-1.71;100.00
45541;BME280;31265;49.680;8.608;2023-03-03T06:38:56;101021.84;;;-1.78;100.00
45541;BME280;31265;49.680;8.608;2023-03-03T06:41:24;101018.84;;;-1.80;100.00
45541;BME280;31265;49.680;8.608;2023-03-03T06:43:53;101007.31;;;-1.75;100.00
45541;BME280;31265;49.680;8.608;2023-03-03T06:46:21;101015.91;;;-1.67;100.00
45541;BME280;31265;49.680;8.608;2023-03-03T06:48:50;101021.63;;;-1.56;100.00
45541;BME280;31265;49.680;8.608;2023-03-03T06:51:23;101019.31;;;-1.48;100.00
45541;BME280;31265;49.680;8.608;2023-03-03T06:53:57;101021.94;;;-1.30;100.00
45541;BME280;31265;49.680;8.608;2023-03-03T06:56:26;101025.94;;;-1.16;100.00
45541;BME280;31265;49.680;8.608;2023-03-03T06:58:55;101023.44;;;-1.04;100.00
45541;BME280;31265;49.680;8.608;2023-03-03T07:01:28;101033.03;;;-0.94;100.00
45541;BME280;31265;49.680;8.608;2023-03-03T07:04:03;101034.22;;;-0.86;100.00
45541;BME280;31265;49.680;8.608;2023-03-03T07:06:33;101038.69;;;-0.74;100.00
45541;BME280;31265;49.680;8.608;2023-03-03T07:09:14;101043.78;;;-0.67;100.00
45541;BME280;31265;49.680;8.608;2023-03-03T07:11:46;101051.97;;;-0.52;100.00
45541;BME280;31265;49.680;8.608;2023-03-03T07:14:16;101049.94;;;-0.42;100.00
45541;BME280;31265;49.680;8.608;2023-03-03T07:16:46;101049.53;;;-0.35;100.00
45541;BME280;31265;49.680;8.608;2023-03-03T07:19:19;101054.91;;;-0.26;100.00
45541;BME280;31265;49.680;8.608;2023-03-03T07:21:49;101052.56;;;-0.18;100.00
45541;BME280;31265;49.680;8.608;2023-03-03T07:24:25;101061.25;;;-0.05;100.00
45541;BME280;31265;49.680;8.608;2023-03-03T07:26:58;101065.75;;;0.13;100.00
45541;BME280;31265;49.680;8.608;2023-03-03T07:29:28;101073.66;;;0.26;100.00
45541;BME280;31265;49.680;8.608;2023-03-03T07:32:00;101062.25;;;0.42;100.00
45541;BME280;31265;49.680;8.608;2023-03-03T07:34:33;101065.69;;;0.58;100.00
45541;BME280;31265;49.680;8.608;2023-03-03T07:37:09;101070.25;;;0.81;100.00
45541;BME280;31265;49.680;8.608;2023-03-03T07:39:46;101069.38;;;0.90;100.00
45541;BME280;31265;49.680;8.608;2023-03-03T07:42:21;101088.84;;;0.98;100.00
45541;BME280;31265;49.680;8.608;2023-03-03T07:45:24;101092.44;;;1.45;100.00
45541;BME280;31265;49.680;8.608;2023-03-03T07:48:01;101090.03;;;1.53;100.00
45541;BME280;31265;49.680;8.608;2023-03-03T07:50:33;101090.34;;;1.60;100.00
45541;BME280;31265;49.680;8.608;2023-03-03T07:53:02;101099.91;;;1.70;100.00
45541;BME280;31265;49.680;8.608;2023-03-03T07:55:36;101114.84;;;1.69;100.00
45541;BME280;31265;49.680;8.608;2023-03-03T07:58:19;101112.69;;;1.79;100.00
45541;BME280;31265;49.680;8.608;2023-03-03T08:03:53;101116.78;;;2.15;100.00
45541;BME280;31265;49.680;8.608;2023-03-03T08:06:39;101115.16;;;2.29;100.00
45541;BME280;31265;49.680;8.608;2023-03-03T08:09:31;101112.34;;;2.18;100.00
45541;BME280;31265;49.680;8.608;2023-03-03T08:15:16;101128.78;;;2.50;100.00
45541;BME280;31265;49.680;8.608;2023-03-03T08:17:49;101121.13;;;2.59;100.00
45541;BME280;31265;49.680;8.608;2023-03-03T08:20:38;101115.13;;;2.24;100.00
45541;BME280;31265;49.680;8.608;2023-03-03T08:23:11;101114.56;;;2.46;100.00
45541;BME280;31265;49.680;8.608;2023-03-03T08:25:41;101114.72;;;2.68;100.00
45541;BME280;31265;49.680;8.608;2023-03-03T08:28:11;101115.41;;;2.57;100.00
45541;BME280;31265;49.680;8.608;2023-03-03T08:30:41;101124.50;;;2.75;100.00
45541;BME280;31265;49.680;8.608;2023-03-03T08:33:10;101121.53;;;2.84;100.00
45541;BME280;31265;49.680;8.608;2023-03-03T08:35:39;101125.00;;;2.47;100.00
45541;BME280;31265;49.680;8.608;2023-03-03T08:38:10;101116.00;;;2.41;100.00
45541;BME280;31265;49.680;8.608;2023-03-03T08:40:40;101126.13;;;2.61;100.00
45541;BME280;31265;49.680;8.608;2023-03-03T08:43:09;101137.41;;;2.74;100.00
45541;BME280;31265;49.680;8.608;2023-03-03T08:45:40;101137.75;;;2.82;100.00
45541;BME280;31265;49.680;8.608;2023-03-03T08:48:09;101138.78;;;2.90;100.00
45541;BME280;31265;49.680;8.608;2023-03-03T08:50:37;101138.03;;;2.90;100.00
45541;BME280;31265;49.680;8.608;2023-03-03T08:53:07;101133.31;;;2.90;100.00
45541;BME280;31265;49.680;8.608;2023-03-03T08:55:37;101141.78;;;2.92;100.00
45541;BME280;31265;49.680;8.608;2023-03-03T08:58:06;101129.56;;;2.93;100.00
45541;BME280;31265;49.680;8.608;2023-03-03T09:00:36;101134.59;;;3.00;100.00
45541;BME280;31265;49.680;8.608;2023-03-03T09:03:06;101139.91;;;3.10;100.00
45541;BME280;31265;49.680;8.608;2023-03-03T09:05:35;101137.28;;;3.32;100.00
45541;BME280;31265;49.680;8.608;2023-03-03T09:08:04;101133.56;;;3.41;100.00
45541;BME280;31265;49.680;8.608;2023-03-03T09:10:33;101135.06;;;3.42;100.00
45541;BME280;31265;49.680;8.608;2023-03-03T09:13:06;101143.28;;;3.36;100.00
45541;BME280;31265;49.680;8.608;2023-03-03T09:15:39;101150.72;;;3.30;100.00
45541;BME280;31265;49.680;8.608;2023-03-03T09:18:18;101135.81;;;3.42;100.00
45541;BME280;31265;49.680;8.608;2023-03-03T09:20:49;101134.28;;;3.36;100.00
45541;BME280;31265;49.680;8.608;2023-03-03T09:23:33;101140.41;;;3.14;100.00
45541;BME280;31265;49.680;8.608;2023-03-03T09:26:29;101134.09;;;3.45;100.00
45541;BME280;31265;49.680;8.608;2023-03-03T09:29:15;101149.69;;;3.76;100.00
45541;BME280;31265;49.680;8.608;2023-03-03T09:31:47;101151.63;;;3.70;100.00
45541;BME280;31265;49.680;8.608;2023-03-03T09:34:37;101151.69;;;3.81;100.00
45541;BME280;31265;49.680;8.608;2023-03-03T09:37:37;101146.19;;;3.81;100.00
45541;BME280;31265;49.680;8.608;2023-03-03T09:40:30;101155.13;;;3.65;100.00
45541;BME280;31265;49.680;8.608;2023-03-03T09:43:13;101158.41;;;3.75;100.00
45541;BME280;31265;49.680;8.608;2023-03-03T09:45:58;101160.38;;;3.69;100.00
45541;BME280;31265;49.680;8.608;2023-03-03T09:48:43;101155.84;;;3.60;100.00
45541;BME280;31265;49.680;8.608;2023-03-03T09:51:42;101167.84;;;3.68;100.00
45541;BME280;31265;49.680;8.608;2023-03-03T09:54:24;101156.91;;;3.74;100.00
45541;BME280;31265;49.680;8.608;2023-03-03T09:57:01;101157.22;;;4.04;100.00
45541;BME280;31265;49.680;8.608;2023-03-03T09:59:43;101160.19;;;3.95;100.00
45541;BME280;31265;49.680;8.608;2023-03-03T10:02:30;101171.22;;;4.06;100.00
45541;BME280;31265;49.680;8.608;2023-03-03T10:05:18;101172.50;;;4.16;100.00
45541;BME280;31265;49.680;8.608;2023-03-03T10:08:02;101180.50;;;4.25;100.00
45541;BME280;31265;49.680;8.608;2023-03-03T10:10:55;101172.25;;;4.25;100.00
45541;BME280;31265;49.680;8.608;2023-03-03T10:13:44;101161.28;;;4.25;100.00
45541;BME280;31265;49.680;8.608;2023-03-03T10:16:38;101150.50;;;4.27;100.00
45541;BME280;31265;49.680;8.608;2023-03-03T10:19:25;101150.28;;;4.48;100.00
45541;BME280;31265;49.680;8.608;2023-03-03T10:22:01;101157.00;;;4.30;100.00
45541;BME280;31265;49.680;8.608;2023-03-03T10:24:39;101161.78;;;4.52;100.00
45541;BME280;31265;49.680;8.608;2023-03-03T10:27:24;101160.78;;;4.78;100.00
45541;BME280;31265;49.680;8.608;2023-03-03T10:30:02;101170.25;;;4.93;100.00
45541;BME280;31265;49.680;8.608;2023-03-03T10:32:44;101165.50;;;4.88;100.00
45541;BME280;31265;49.680;8.608;2023-03-03T10:35:37;101167.00;;;4.89;100.00
45541;BME280;31265;49.680;8.608;2023-03-03T10:38:32;101171.47;;;5.21;100.00
45541;BME280;31265;49.680;8.608;2023-03-03T10:41:24;101171.88;;;5.47;100.00
45541;BME280;31265;49.680;8.608;2023-03-03T10:44:23;101173.88;;;5.52;100.00
45541;BME280;31265;49.680;8.608;2023-03-03T10:47:03;101180.09;;;5.58;100.00
45541;BME280;31265;49.680;8.608;2023-03-03T10:49:45;101167.91;;;5.31;100.00
45541;BME280;31265;49.680;8.608;2023-03-03T10:52:24;101180.47;;;5.27;100.00
45541;BME280;31265;49.680;8.608;2023-03-03T10:55:28;101180.16;;;5.36;100.00
45541;BME280;31265;49.680;8.608;2023-03-03T10:58:20;101177.84;;;5.57;100.00
45541;BME280;31265;49.680;8.608;2023-03-03T11:00:58;101176.25;;;5.84;100.00
45541;BME280;31265;49.680;8.608;2023-03-03T11:06:37;101175.13;;;6.10;100.00
45541;BME280;31265;49.680;8.608;2023-03-03T11:09:20;101180.34;;;6.19;100.00
45541;BME280;31265;49.680;8.608;2023-03-03T11:11:58;101174.28;;;6.26;100.00
45541;BME280;31265;49.680;8.608;2023-03-03T11:14:42;101178.53;;;6.27;100.00
45541;BME280;31265;49.680;8.608;2023-03-03T11:17:21;101173.13;;;6.76;100.00
45541;BME280;31265;49.680;8.608;2023-03-03T11:20:01;101183.97;;;6.99;100.00
45541;BME280;31265;49.680;8.608;2023-03-03T11:22:35;101175.69;;;6.99;100.00
45541;BME280;31265;49.680;8.608;2023-03-03T11:25:20;101172.66;;;7.02;100.00
45541;BME280;31265;49.680;8.608;2023-03-03T11:28:02;101172.47;;;7.19;100.00
45541;BME280;31265;49.680;8.608;2023-03-03T11:33:46;101162.47;;;7.60;100.00
45541;BME280;31265;49.680;8.608;2023-03-03T11:36:25;101164.25;;;7.76;100.00
45541;BME280;31265;49.680;8.608;2023-03-03T11:38:57;101164.78;;;7.93;100.00
45541;BME280;31265;49.680;8.608;2023-03-03T11:41:29;101159.66;;;7.84;97.46
45541;BME280;31265;49.680;8.608;2023-03-03T11:44:07;101157.09;;;7.67;100.00
45541;BME280;31265;49.680;8.608;2023-03-03T11:46:44;101159.44;;;8.01;100.00
45541;BME280;31265;49.680;8.608;2023-03-03T11:49:18;101151.41;;;8.16;98.35
45541;BME280;31265;49.680;8.608;2023-03-03T11:51:54;101143.72;;;8.09;97.00
45541;BME280;31265;49.680;8.608;2023-03-03T11:54:33;101143.88;;;8.17;95.17
45541;BME280;31265;49.680;8.608;2023-03-03T11:57:11;101131.47;;;8.24;93.15
45541;BME280;31265;49.680;8.608;2023-03-03T11:59:59;101136.22;;;8.23;92.92
45541;BME280;31265;49.680;8.608;2023-03-03T12:02:59;101130.13;;;8.11;99.86
45541;BME280;31265;49.680;8.608;2023-03-03T12:05:40;101136.44;;;8.25;88.66
45541;BME280;31265;49.680;8.608;2023-03-03T12:08:26;101133.25;;;8.21;89.45
45541;BME280;31265;49.680;8.608;2023-03-03T12:11:05;101131.47;;;8.56;82.67
45541;BME280;31265;49.680;8.608;2023-03-03T12:13:43;101133.19;;;8.59;86.72
45541;BME280;31265;49.680;8.608;2023-03-03T12:16:23;101123.56;;;8.47;84.60
45541;BME280;31265;49.680;8.608;2023-03-03T12:22:17;101123.28;;;8.64;85.61
45541;BME280;31265;49.680;8.608;2023-03-03T12:25:12;101116.38;;;8.70;85.19
45541;BME280;31265;49.680;8.608;2023-03-03T12:27:51;101119.25;;;8.65;86.04
45541;BME280;31265;49.680;8.608;2023-03-03T12:30:28;101119.47;;;8.80;85.08
45541;BME280;31265;49.680;8.608;2023-03-03T12:33:11;101106.06;;;9.24;79.02
45541;BME280;31265;49.680;8.608;2023-03-03T12:35:53;101104.16;;;9.32;75.76
45541;BME280;31265;49.680;8.608;2023-03-03T12:38:34;101112.84;;;9.50;72.67
45541;BME280;31265;49.680;8.608;2023-03-03T12:41:09;101102.34;;;9.21;75.19
45541;BME280;31265;49.680;8.608;2023-03-03T12:43:53;101096.50;;;9.25;73.56
45541;BME280;31265;49.680;8.608;2023-03-03T12:46:32;101091.81;;;9.20;73.06
45541;BME280;31265;49.680;8.608;2023-03-03T12:49:06;101087.75;;;9.21;72.45
45541;BME280;31265;49.680;8.608;2023-03-03T12:51:45;101079.66;;;9.10;76.74
45541;BME280;31265;49.680;8.608;2023-03-03T12:54:31;101080.44;;;9.44;74.03
45541;BME280;31265;49.680;8.608;2023-03-03T12:57:11;101083.44;;;9.46;73.60
45541;BME280;31265;49.680;8.608;2023-03-03T12:59:47;101080.72;;;9.67;71.25
45541;BME280;31265;49.680;8.608;2023-03-03T13:02:38;101078.88;;;9.36;71.24
45541;BME280;31265;49.680;8.608;2023-03-03T13:05:28;101065.81;;;9.23;72.81
45541;BME280;31265;49.680;8.608;2023-03-03T13:08:16;101070.63;;;9.57;70.39
45541;BME280;31265;49.680;8.608;2023-03-03T13:10:53;101068.03;;;9.72;71.88
45541;BME280;31265;49.680;8.608;2023-03-03T13:13:30;101071.41;;;9.78;70.04
45541;BME280;31265;49.680;8.608;2023-03-03T13:16:05;101076.72;;;10.10;70.47
45541;BME280;31265;49.680;8.608;2023-03-03T13:18:47;101066.84;;;10.44;66.30
45541;BME280;31265;49.680;8.608;2023-03-03T13:21:20;101069.94;;;10.61;65.35
45541;BME280;31265;49.680;8.608;2023-03-03T13:24:00;101067.84;;;10.12;67.52
45541;BME280;31265;49.680;8.608;2023-03-03T13:26:35;101062.44;;;9.85;68.98
45541;BME280;31265;49.680;8.608;2023-03-03T13:29:12;101059.91;;;10.29;68.16
45541;BME280;31265;49.680;8.608;2023-03-03T13:31:47;101046.78;;;10.59;66.51
45541;BME280;31265;49.680;8.608;2023-03-03T13:34:25;101068.22;;;10.58;65.28
45541;BME280;31265;49.680;8.608;2023-03-03T13:37:01;101062.63;;;10.50;63.76
45541;BME280;31265;49.680;8.608;2023-03-03T13:39:37;101062.94;;;10.39;65.86